createdAt,value
2019-01-25T00:02:07.778Z,92.00
2019-01-25T00:04:38.546Z,92.00
2019-01-25T00:07:09.342Z,92.00
2019-01-25T00:09:44.013Z,92.00
2019-01-25T00:12:14.954Z,92.00
2019-01-25T00:14:45.799Z,92.00
2019-01-25T00:17:16.694Z,92.10
2019-01-25T00:19:47.612Z,92.20
2019-01-25T00:22:18.463Z,92.50
2019-01-25T00:24:49.250Z,92.30
2019-01-25T00:27:20.136Z,92.40
2019-01-25T00:29:50.982Z,92.30
2019-01-25T00:32:21.890Z,92.40
2019-01-25T00:34:52.812Z,92.40
2019-01-25T00:37:24.110Z,92.20
2019-01-25T00:39:54.990Z,92.40
2019-01-25T00:42:25.866Z,92.50
2019-01-25T00:44:56.535Z,92.70
2019-01-25T00:47:27.312Z,92.90
2019-01-25T00:49:58.219Z,92.80
2019-01-25T00:52:28.988Z,92.80
2019-01-25T00:54:59.745Z,92.80
2019-01-25T00:57:30.543Z,92.90
2019-01-25T01:00:01.340Z,93.10
2019-01-25T01:02:32.195Z,93.10
2019-01-25T01:05:03.019Z,93.00
2019-01-25T01:07:35.434Z,93.10
2019-01-25T01:10:13.737Z,93.20
2019-01-25T01:12:39.134Z,93.20
2019-01-25T01:15:10.638Z,93.20
2019-01-25T01:17:41.483Z,93.30
2019-01-25T01:20:14.318Z,93.30
2019-01-25T01:22:45.111Z,93.40
2019-01-25T01:25:15.921Z,93.40
2019-01-25T01:27:46.973Z,93.40
2019-01-25T01:30:22.861Z,93.50
2019-01-25T01:32:54.512Z,93.50
2019-01-25T01:35:25.271Z,93.50
2019-01-25T01:37:56.060Z,93.60
2019-01-25T01:40:29.826Z,93.60
2019-01-25T01:43:00.643Z,93.60
2019-01-25T01:45:31.435Z,93.60
2019-01-25T01:48:02.296Z,93.70
2019-01-25T01:50:33.095Z,93.70
2019-01-25T02:09:00.021Z,93.90
2019-01-25T02:11:30.869Z,94.00
2019-01-25T02:14:01.685Z,94.10
2019-01-25T02:16:32.543Z,94.20
2019-01-25T02:19:03.414Z,94.20
2019-01-25T02:21:34.279Z,94.20
2019-01-25T02:24:05.543Z,94.30
2019-01-25T02:26:36.478Z,94.30
2019-01-25T02:29:07.246Z,94.40
2019-01-25T02:31:38.012Z,94.40
2019-01-25T02:34:08.709Z,94.60
2019-01-25T02:36:39.580Z,94.60
2019-01-25T02:39:10.313Z,94.60
2019-01-25T02:41:41.183Z,94.60
2019-01-25T02:44:12.413Z,94.70
2019-01-25T02:46:43.257Z,94.70
2019-01-25T02:49:14.122Z,95.10
2019-01-25T02:51:45.016Z,94.80
2019-01-25T02:54:15.812Z,94.70
2019-01-25T02:56:46.567Z,94.70
2019-01-25T02:59:17.317Z,94.70
2019-01-25T03:01:48.074Z,94.70
2019-01-25T03:04:18.781Z,94.80
2019-01-25T03:06:49.502Z,94.90
2019-01-25T03:09:20.285Z,94.90
2019-01-25T03:11:51.043Z,95.00
2019-01-25T03:14:21.883Z,95.00
2019-01-25T03:16:52.699Z,95.00
2019-01-25T03:19:23.479Z,95.00
2019-01-25T03:21:54.155Z,95.10
2019-01-25T03:24:24.951Z,95.10
2019-01-25T03:26:55.793Z,95.10
2019-01-25T03:29:26.651Z,95.10
2019-01-25T03:31:57.413Z,95.10
2019-01-25T03:34:28.656Z,95.10
2019-01-25T03:36:59.577Z,95.20
2019-01-25T03:39:30.463Z,95.20
2019-01-25T03:42:01.334Z,95.10
2019-01-25T03:44:32.203Z,95.10
2019-01-25T03:47:03.059Z,95.20
2019-01-25T03:49:33.888Z,95.20
2019-01-25T03:52:04.647Z,95.30
2019-01-25T03:54:35.467Z,95.40
2019-01-25T03:57:06.116Z,95.60
2019-01-25T03:59:37.028Z,95.50
2019-01-25T04:02:07.814Z,95.70
2019-01-25T04:04:38.658Z,95.70
2019-01-25T04:07:09.506Z,95.60
2019-01-25T04:09:40.302Z,95.60
2019-01-25T04:12:11.185Z,95.70
2019-01-25T04:14:41.881Z,95.70
2019-01-25T04:17:12.737Z,95.70
2019-01-25T04:19:43.598Z,95.80
2019-01-25T04:22:14.422Z,95.80
2019-01-25T04:24:45.302Z,95.90
2019-01-25T04:27:16.051Z,95.90
2019-01-25T04:29:46.816Z,95.90
2019-01-25T04:32:17.721Z,95.90
2019-01-25T04:34:48.607Z,96.00
2019-01-25T04:37:19.436Z,96.00
2019-01-25T04:39:51.693Z,96.10
2019-01-25T04:42:22.463Z,96.10
2019-01-25T04:44:53.149Z,96.10
2019-01-25T04:47:28.470Z,96.20
2019-01-25T04:49:59.239Z,96.20
2019-01-25T04:52:31.023Z,96.20
2019-01-25T04:55:08.268Z,96.20
2019-01-25T04:57:39.008Z,96.20
2019-01-25T05:00:11.853Z,96.20
2019-01-25T05:02:45.431Z,96.30
2019-01-25T05:05:16.178Z,96.30
2019-01-25T05:07:46.825Z,96.30
2019-01-25T05:10:17.482Z,96.30
2019-01-25T05:12:53.302Z,96.40
2019-01-25T05:15:24.061Z,96.30
2019-01-25T05:17:55.159Z,96.30
2019-01-25T05:20:25.918Z,96.40
2019-01-25T05:22:58.207Z,96.40
2019-01-25T05:25:29.075Z,96.40
2019-01-25T05:28:09.843Z,96.40
2019-01-25T05:30:52.998Z,96.40
2019-01-25T05:33:23.707Z,96.40
2019-01-25T05:35:54.434Z,96.40
2019-01-25T05:38:26.825Z,96.40
2019-01-25T05:40:57.620Z,96.50
2019-01-25T05:43:31.300Z,96.50
2019-01-25T05:46:02.069Z,96.50
2019-01-25T05:48:32.848Z,96.50
2019-01-25T05:51:04.932Z,96.60
2019-01-25T05:53:35.650Z,96.60
2019-01-25T05:56:07.006Z,96.50
2019-01-25T05:58:37.713Z,96.60
2019-01-25T06:01:08.621Z,96.70
2019-01-25T06:03:39.500Z,96.60
2019-01-25T06:06:10.359Z,96.60
2019-01-25T06:08:44.021Z,96.60
2019-01-25T06:11:14.203Z,96.70
2019-01-25T06:13:45.877Z,96.70
2019-01-25T06:16:17.656Z,96.70
2019-01-25T06:18:48.296Z,96.60
2019-01-25T06:21:20.931Z,96.70
2019-01-25T06:23:54.762Z,96.70
2019-01-25T06:26:25.545Z,96.80
2019-01-25T06:28:56.374Z,96.90
2019-01-25T06:31:27.114Z,96.90
2019-01-25T06:33:57.832Z,96.90
2019-01-25T06:36:29.673Z,97.00
2019-01-25T06:39:00.422Z,97.00
2019-01-25T06:41:31.151Z,96.90
2019-01-25T06:44:01.901Z,97.00
2019-01-25T06:46:32.653Z,97.10
2019-01-25T06:49:03.401Z,97.10
2019-01-25T06:51:34.237Z,97.10
2019-01-25T06:54:04.906Z,97.20
2019-01-25T06:56:35.700Z,97.20
2019-01-25T06:59:11.509Z,97.30
2019-01-25T07:02:01.224Z,97.20
2019-01-25T07:04:31.958Z,97.20
2019-01-25T07:07:04.665Z,97.20
2019-01-25T07:09:35.380Z,97.20
2019-01-25T07:12:07.082Z,97.30
2019-01-25T07:14:37.886Z,97.30
2019-01-25T07:17:08.610Z,97.30
2019-01-25T07:19:39.490Z,97.30
2019-01-25T07:22:10.218Z,97.40
2019-01-25T07:24:40.977Z,97.40
2019-01-25T07:27:11.746Z,97.30
2019-01-25T07:29:42.477Z,97.20
2019-01-25T07:32:13.466Z,97.30
2019-01-25T07:34:44.165Z,97.30
2019-01-25T07:37:14.959Z,97.30
2019-01-25T07:39:46.738Z,97.40
2019-01-25T07:42:17.639Z,97.40
2019-01-25T07:44:48.512Z,97.30
2019-01-25T07:47:19.266Z,97.40
2019-01-25T07:49:50.215Z,97.40
2019-01-25T07:52:21.009Z,97.40
2019-01-25T07:54:52.866Z,97.50
2019-01-25T07:57:23.835Z,97.50
2019-01-25T07:59:54.551Z,97.50
2019-01-25T08:02:25.465Z,97.50
2019-01-25T08:04:56.217Z,97.50
2019-01-25T08:07:27.004Z,97.40
2019-01-25T08:09:57.845Z,97.30
2019-01-25T08:12:30.265Z,97.10
2019-01-25T08:15:01.159Z,97.20
2019-01-25T08:17:32.081Z,97.30
2019-01-25T08:20:02.949Z,97.40
2019-01-25T08:22:34.621Z,97.40
2019-01-25T08:25:06.566Z,97.50
2019-01-25T08:27:37.420Z,97.50
2019-01-25T08:30:10.637Z,97.50
2019-01-25T08:32:41.485Z,97.60
2019-01-25T08:35:12.905Z,97.50
2019-01-25T08:37:43.722Z,97.60
2019-01-25T08:40:14.636Z,97.60
2019-01-25T08:42:45.563Z,97.60
2019-01-25T08:45:16.817Z,97.50
2019-01-25T08:47:48.668Z,97.50
2019-01-25T08:50:20.763Z,97.60
2019-01-25T08:52:52.162Z,97.60
2019-01-25T08:55:23.204Z,97.50
2019-01-25T08:57:54.077Z,97.50
2019-01-25T09:00:25.727Z,97.40
2019-01-25T09:02:56.472Z,97.30
2019-01-25T09:05:27.236Z,97.40
2019-01-25T09:07:59.030Z,97.40
2019-01-25T09:10:30.201Z,97.50
2019-01-25T09:13:01.094Z,97.50
2019-01-25T09:15:32.246Z,97.60
2019-01-25T09:18:03.249Z,97.50
2019-01-25T09:20:34.099Z,97.50
2019-01-25T09:23:04.920Z,97.50
2019-01-25T09:25:36.679Z,97.40
2019-01-25T09:28:09.106Z,97.20
2019-01-25T09:30:39.926Z,97.40
2019-01-25T09:33:10.761Z,97.50
2019-01-25T09:35:41.579Z,97.60
2019-01-25T09:38:12.377Z,97.50
2019-01-25T09:40:43.271Z,97.40
2019-01-25T09:43:15.092Z,97.40
2019-01-25T09:45:45.878Z,97.40
2019-01-25T09:48:16.830Z,97.40
2019-01-25T09:50:52.666Z,97.40
2019-01-25T09:53:20.144Z,97.40
2019-01-25T09:55:50.834Z,97.40
2019-01-25T09:58:21.627Z,97.20
2019-01-25T10:00:56.267Z,97.20
2019-01-25T10:03:27.174Z,97.30
2019-01-25T10:05:58.048Z,97.20
2019-01-25T10:08:29.006Z,97.30
2019-01-25T10:10:59.827Z,97.30
2019-01-25T10:13:30.554Z,97.20
2019-01-25T10:16:01.382Z,97.20
2019-01-25T10:18:34.773Z,97.20
2019-01-25T10:21:05.619Z,96.90
2019-01-25T10:23:39.189Z,96.90
2019-01-25T10:26:10.625Z,96.80
2019-01-25T10:28:41.457Z,96.90
2019-01-25T10:31:12.290Z,97.10
2019-01-25T10:33:43.102Z,97.10
2019-01-25T10:36:13.906Z,97.10
2019-01-25T10:38:44.722Z,97.10
2019-01-25T10:41:16.670Z,96.90
2019-01-25T10:43:47.574Z,96.80
2019-01-25T10:46:18.348Z,96.80
2019-01-25T10:48:49.692Z,96.90
2019-01-25T10:51:20.677Z,97.00
2019-01-25T10:53:52.066Z,97.00
2019-01-25T10:56:22.915Z,97.10
2019-01-25T10:58:53.714Z,97.40
2019-01-25T11:01:24.504Z,96.90
2019-01-25T11:03:55.312Z,96.90
2019-01-25T11:06:26.187Z,97.00
2019-01-25T11:08:56.944Z,96.90
2019-01-25T11:11:27.688Z,96.90
2019-01-25T11:13:58.490Z,97.10
2019-01-25T11:16:31.037Z,97.00
2019-01-25T11:19:01.918Z,96.90
2019-01-25T11:21:37.403Z,96.80
2019-01-25T11:24:07.877Z,96.60
2019-01-25T11:26:38.044Z,96.60
2019-01-25T11:29:08.850Z,96.80
2019-01-25T11:31:39.686Z,96.90
2019-01-25T11:34:10.507Z,96.90
2019-01-25T11:36:41.286Z,96.90
2019-01-25T11:39:12.708Z,96.90
2019-01-25T11:41:43.488Z,97.00
2019-01-25T11:44:14.271Z,96.90
2019-01-25T11:46:45.129Z,96.90
2019-01-25T11:49:20.276Z,96.80
2019-01-25T11:51:51.378Z,96.80
2019-01-25T11:54:22.397Z,96.90
2019-01-25T11:56:53.084Z,96.80
2019-01-25T11:59:23.899Z,96.90
2019-01-25T12:01:54.809Z,96.90
2019-01-25T12:04:25.712Z,96.90
2019-01-25T12:06:56.482Z,97.10
2019-01-25T12:09:30.255Z,96.80
2019-01-25T12:12:01.620Z,96.90
2019-01-25T12:14:33.282Z,96.90
2019-01-25T12:17:05.228Z,96.90
2019-01-25T12:19:36.017Z,96.90
2019-01-25T12:22:07.270Z,96.70
2019-01-25T12:24:38.107Z,96.70
2019-01-25T12:27:08.814Z,96.70
2019-01-25T12:29:40.046Z,96.80
2019-01-25T12:32:12.027Z,96.60
2019-01-25T12:34:42.935Z,96.70
2019-01-25T12:37:13.739Z,96.70
2019-01-25T12:39:44.514Z,96.80
2019-01-25T12:42:15.337Z,96.80
2019-01-25T12:44:46.221Z,96.90
2019-01-25T12:47:17.126Z,96.80
2019-01-25T12:49:48.663Z,96.90
2019-01-25T12:52:19.467Z,96.80
2019-01-25T12:54:50.261Z,96.80
2019-01-25T12:57:21.129Z,96.70
2019-01-25T12:59:51.883Z,96.70
2019-01-25T13:02:22.682Z,96.80
2019-01-25T13:04:53.511Z,96.90
2019-01-25T13:07:24.236Z,96.90
2019-01-25T13:09:54.989Z,97.00
2019-01-25T13:12:25.779Z,97.10
2019-01-25T13:14:58.171Z,97.00
2019-01-25T13:17:28.942Z,96.90
2019-01-25T13:20:00.240Z,96.90
2019-01-25T13:22:32.597Z,96.90
2019-01-25T13:25:03.401Z,96.90
2019-01-25T13:27:34.325Z,97.10
2019-01-25T13:30:07.082Z,97.20
2019-01-25T13:32:38.106Z,97.20
2019-01-25T13:35:10.003Z,97.10
2019-01-25T13:37:40.851Z,97.20
2019-01-25T13:40:14.058Z,97.30
2019-01-25T13:42:44.780Z,97.20
2019-01-25T13:45:17.185Z,97.30
2019-01-25T13:47:48.993Z,97.30
2019-01-25T13:50:21.565Z,97.30
2019-01-25T13:52:52.282Z,97.40
2019-01-25T13:55:23.007Z,97.40
2019-01-25T13:57:59.595Z,97.40
2019-01-25T14:00:32.902Z,97.40
2019-01-25T14:03:03.669Z,97.40
2019-01-25T14:05:34.335Z,97.40
2019-01-25T14:08:06.137Z,97.40
2019-01-25T14:10:37.246Z,97.40
2019-01-25T14:13:07.970Z,97.40
2019-01-25T14:15:38.802Z,97.40
2019-01-25T14:18:09.446Z,97.60
2019-01-25T14:20:40.197Z,97.40
2019-01-25T14:23:15.824Z,97.40
2019-01-25T14:25:46.792Z,97.40
2019-01-25T14:28:17.511Z,97.40
2019-01-25T14:30:48.272Z,97.40
2019-01-25T14:33:19.007Z,97.40
2019-01-25T14:35:49.755Z,97.50
2019-01-25T14:38:20.524Z,97.40
2019-01-25T14:40:51.259Z,97.30
2019-01-25T14:43:22.011Z,97.30
2019-01-25T14:45:52.796Z,97.30
2019-01-25T14:48:23.570Z,97.40
2019-01-25T14:50:54.191Z,97.50
2019-01-25T14:53:24.974Z,97.50
2019-01-25T14:55:55.711Z,97.60
2019-01-25T14:58:26.523Z,97.70
2019-01-25T15:00:57.763Z,97.80
2019-01-25T15:03:28.618Z,97.80
2019-01-25T15:05:59.352Z,97.80
2019-01-25T15:08:30.174Z,97.80
2019-01-25T15:11:01.068Z,97.70
2019-01-25T15:13:31.917Z,97.80
2019-01-25T15:16:02.660Z,97.90
2019-01-25T15:18:33.531Z,97.90
2019-01-25T15:21:04.275Z,97.80
2019-01-25T15:23:36.079Z,97.80
2019-01-25T15:26:06.811Z,97.90
2019-01-25T15:28:37.547Z,98.00
2019-01-25T15:31:08.514Z,98.00
2019-01-25T15:33:39.327Z,98.00
2019-01-25T15:36:10.206Z,98.00
2019-01-25T15:38:41.258Z,98.00
2019-01-25T15:41:12.183Z,98.00
2019-01-25T15:43:42.981Z,97.90
2019-01-25T15:46:13.894Z,98.00
2019-01-25T15:48:44.744Z,98.00
2019-01-25T15:51:15.559Z,98.10
2019-01-25T15:53:46.383Z,98.30
2019-01-25T15:56:18.758Z,98.20
2019-01-25T15:58:50.822Z,98.30
2019-01-25T16:01:21.675Z,98.20
2019-01-25T16:03:52.445Z,98.20
2019-01-25T16:06:23.229Z,98.30
2019-01-25T16:08:54.044Z,98.10
2019-01-25T16:11:24.866Z,98.10
2019-01-25T16:13:55.591Z,98.20
2019-01-25T16:16:26.393Z,98.30
2019-01-25T16:18:57.173Z,98.30
2019-01-25T16:21:27.897Z,98.30
2019-01-25T16:23:58.760Z,98.20
2019-01-25T16:26:30.050Z,98.30
2019-01-25T16:29:00.788Z,98.30
2019-01-25T16:31:32.421Z,98.40
2019-01-25T16:34:03.652Z,98.40
2019-01-25T16:36:34.284Z,98.30
2019-01-25T16:39:08.368Z,98.50
2019-01-25T16:41:39.111Z,98.40
2019-01-25T16:44:09.896Z,98.40
2019-01-25T16:46:40.575Z,98.40
2019-01-25T16:49:11.303Z,98.50
2019-01-25T16:51:42.027Z,98.60
2019-01-25T16:54:12.787Z,98.50
2019-01-25T16:56:43.484Z,98.50
2019-01-25T16:59:14.163Z,98.50
2019-01-25T17:01:44.965Z,98.90
2019-01-25T17:04:16.745Z,98.60
2019-01-25T17:06:47.514Z,98.60
2019-01-25T17:09:18.286Z,98.60
2019-01-25T17:11:49.120Z,98.60
2019-01-25T17:14:19.942Z,98.60
2019-01-25T17:16:50.682Z,98.60
2019-01-25T17:19:21.508Z,98.50
2019-01-25T17:21:52.254Z,98.50
2019-01-25T17:24:22.965Z,98.50
2019-01-25T17:26:53.760Z,98.60
2019-01-25T17:29:24.725Z,98.70
2019-01-25T17:31:55.448Z,98.70
2019-01-25T17:34:26.187Z,98.70
2019-01-25T17:36:56.974Z,98.70
2019-01-25T17:39:27.779Z,98.70
2019-01-25T17:41:58.572Z,98.70
2019-01-25T17:44:29.378Z,98.80
2019-01-25T17:47:01.846Z,98.80
2019-01-25T17:49:32.660Z,99.10
2019-01-25T17:52:04.519Z,98.80
2019-01-25T17:54:36.906Z,98.80
2019-01-25T17:57:07.748Z,98.90
2019-01-25T17:59:39.498Z,98.90
2019-01-25T18:02:10.348Z,98.90
2019-01-25T18:04:41.149Z,99.00
2019-01-25T18:07:12.010Z,98.90
2019-01-25T18:09:42.792Z,98.90
2019-01-25T18:12:15.820Z,98.90
2019-01-25T18:14:49.448Z,98.90
2019-01-25T18:17:21.155Z,98.90
2019-01-25T18:19:51.942Z,99.20
2019-01-25T18:22:22.794Z,98.90
2019-01-25T18:24:53.598Z,99.00
2019-01-25T18:27:26.063Z,99.10
2019-01-25T18:29:59.558Z,99.00
2019-01-25T18:32:30.491Z,99.10
2019-01-25T18:35:01.325Z,99.00
2019-01-25T18:37:33.859Z,99.00
2019-01-25T18:40:06.216Z,99.10
2019-01-25T18:42:37.398Z,99.10
2019-01-25T18:45:08.466Z,99.10
2019-01-25T18:47:39.343Z,99.10
2019-01-25T18:50:11.950Z,99.10
2019-01-25T18:52:42.710Z,99.10
2019-01-25T18:55:16.081Z,99.10
2019-01-25T18:57:47.974Z,99.10
2019-01-25T19:00:20.074Z,99.10
2019-01-25T19:02:50.919Z,99.10
2019-01-25T19:05:21.619Z,99.10
2019-01-25T19:07:52.675Z,99.10
2019-01-25T19:10:24.928Z,99.10
2019-01-25T19:12:55.806Z,99.10
2019-01-25T19:15:28.177Z,99.10
2019-01-25T19:18:00.075Z,99.10
2019-01-25T19:20:30.845Z,99.20
2019-01-25T19:23:01.758Z,99.20
2019-01-25T19:25:32.669Z,99.20
2019-01-25T19:28:03.731Z,99.20
2019-01-25T19:30:37.243Z,99.20
2019-01-25T19:33:08.831Z,99.20
2019-01-25T19:35:39.706Z,99.20
2019-01-25T19:38:12.345Z,99.20
2019-01-25T19:40:43.138Z,99.30
2019-01-25T19:43:13.820Z,99.30
2019-01-25T19:45:45.106Z,99.40
2019-01-25T19:48:16.577Z,99.30
2019-01-25T19:50:47.350Z,99.20
2019-01-25T19:53:18.227Z,99.30
2019-01-25T19:55:49.077Z,99.30
2019-01-25T19:58:20.491Z,99.30
2019-01-25T20:00:51.248Z,99.60
2019-01-25T20:03:21.981Z,99.50
2019-01-25T20:05:53.280Z,99.40
2019-01-25T20:08:23.983Z,99.40
2019-01-25T20:10:54.608Z,99.40
2019-01-25T20:13:25.390Z,99.40
2019-01-25T20:15:56.117Z,99.40
2019-01-25T20:18:26.852Z,99.40
2019-01-25T20:20:57.657Z,99.40
2019-01-25T20:23:28.487Z,99.40
2019-01-25T20:25:59.302Z,99.40
2019-01-25T20:28:31.082Z,99.40
2019-01-25T20:31:01.902Z,99.50
2019-01-25T20:33:33.961Z,99.40
2019-01-25T20:36:05.061Z,99.40
2019-01-25T20:38:35.771Z,99.40
2019-01-25T20:41:08.034Z,99.40
2019-01-25T20:43:38.789Z,99.40
2019-01-25T20:46:09.538Z,99.50
2019-01-25T20:48:41.225Z,99.30
2019-01-25T20:51:12.010Z,99.40
2019-01-25T20:53:42.798Z,99.40
2019-01-25T20:56:13.525Z,99.50
2019-01-25T20:58:44.261Z,99.50
2019-01-25T21:01:15.010Z,99.50
2019-01-25T21:03:45.861Z,99.70
2019-01-25T21:06:16.621Z,99.70
2019-01-25T21:08:47.481Z,99.60
2019-01-25T21:11:18.249Z,99.40
2019-01-25T21:13:49.051Z,99.50
2019-01-25T21:16:19.894Z,99.60
2019-01-25T21:18:50.654Z,99.70
2019-01-25T21:21:21.468Z,99.70
2019-01-25T21:23:52.182Z,99.70
2019-01-25T21:26:22.879Z,99.80
2019-01-25T21:28:53.637Z,99.80
2019-01-25T21:31:24.282Z,99.80
2019-01-25T21:33:54.961Z,99.80
2019-01-25T21:36:25.671Z,99.90
2019-01-25T21:38:56.443Z,99.90
2019-01-25T21:41:28.288Z,99.90
2019-01-25T21:44:00.002Z,99.90
2019-01-25T21:46:30.818Z,99.90
2019-01-25T21:49:01.997Z,99.90
2019-01-25T21:51:33.667Z,99.90
2019-01-25T21:54:04.611Z,99.90
2019-01-25T21:56:35.337Z,99.90
2019-01-25T21:59:06.710Z,99.90
2019-01-25T22:01:37.470Z,99.90
2019-01-25T22:04:08.157Z,99.90
2019-01-25T22:06:39.030Z,99.90
2019-01-25T22:09:11.436Z,99.90
2019-01-25T22:11:42.432Z,99.90
2019-01-25T22:14:13.261Z,99.90
2019-01-25T22:16:43.922Z,99.90
2019-01-25T22:19:14.670Z,99.90
2019-01-25T22:21:45.445Z,99.90
2019-01-25T22:24:16.248Z,99.90
2019-01-25T22:26:47.051Z,99.90
2019-01-25T22:29:17.795Z,99.90
2019-01-25T22:31:49.526Z,99.90
2019-01-25T22:34:20.185Z,99.90
2019-01-25T22:36:50.961Z,99.90
2019-01-25T22:39:21.700Z,99.90
2019-01-25T22:41:52.402Z,99.90
2019-01-25T22:44:23.146Z,99.90
2019-01-25T22:46:53.998Z,99.90
2019-01-25T22:49:25.278Z,99.90
2019-01-25T22:51:56.042Z,99.90
2019-01-25T22:54:26.841Z,99.90
2019-01-25T22:56:57.562Z,99.90
2019-01-25T22:59:28.289Z,99.90
2019-01-25T23:01:59.014Z,99.90
2019-01-25T23:05:10.004Z,99.90
2019-01-25T23:07:40.785Z,99.90
2019-01-25T23:10:17.013Z,99.90
2019-01-25T23:12:47.631Z,99.90
2019-01-25T23:15:18.931Z,99.90
2019-01-25T23:17:49.621Z,99.90
2019-01-25T23:20:20.353Z,99.90
2019-01-25T23:22:51.070Z,99.90
2019-01-25T23:25:23.371Z,99.90
2019-01-25T23:27:55.590Z,99.90
2019-01-25T23:30:27.217Z,99.90
2019-01-25T23:32:59.437Z,99.90
2019-01-25T23:35:30.283Z,99.90
2019-01-25T23:38:01.045Z,99.90
2019-01-25T23:40:33.366Z,99.90
2019-01-25T23:43:04.113Z,99.90
2019-01-25T23:45:34.862Z,99.90
2019-01-25T23:48:05.775Z,99.90
2019-01-25T23:50:36.540Z,99.90
2019-01-25T23:53:07.307Z,99.90
2019-01-25T23:55:38.076Z,99.90
2019-01-25T23:58:08.836Z,99.90
